sensor_id;sensor_type;location;lat;lon;timestamp;P1;durP1;ratioP1;P2;durP2;ratioP2
8663;SDS011;4369;47.842;13.096;2023-08-06T00:01:39;5.33;;;4.93;;
8663;SDS011;4369;47.842;13.096;2023-08-06T00:04:06;4.63;;;4.27;;
8663;SDS011;4369;47.842;13.096;2023-08-06T00:06:32;6.40;;;4.77;;
8663;SDS011;4369;47.842;13.096;2023-08-06T00:08:59;5.03;;;4.63;;
8663;SDS011;4369;47.842;13.096;2023-08-06T00:11:28;5.40;;;4.90;;
8663;SDS011;4369;47.842;13.096;2023-08-06T00:13:54;7.30;;;4.70;;
8663;SDS011;4369;47.842;13.096;2023-08-06T00:16:21;5.20;;;4.80;;
8663;SDS011;4369;47.842;13.096;2023-08-06T00:18:48;4.87;;;4.43;;
8663;SDS011;4369;47.842;13.096;2023-08-06T00:21:15;4.87;;;4.47;;
8663;SDS011;4369;47.842;13.096;2023-08-06T00:23:42;4.73;;;4.30;;
8663;SDS011;4369;47.842;13.096;2023-08-06T00:26:09;4.40;;;4.10;;
8663;SDS011;4369;47.842;13.096;2023-08-06T00:28:37;5.00;;;4.50;;
8663;SDS011;4369;47.842;13.096;2023-08-06T00:31:04;4.97;;;4.57;;
8663;SDS011;4369;47.842;13.096;2023-08-06T00:33:31;4.30;;;3.90;;
8663;SDS011;4369;47.842;13.096;2023-08-06T00:35:58;4.83;;;4.43;;
8663;SDS011;4369;47.842;13.096;2023-08-06T00:38:25;4.73;;;4.30;;
8663;SDS011;4369;47.842;13.096;2023-08-06T00:40:52;4.80;;;4.40;;
8663;SDS011;4369;47.842;13.096;2023-08-06T00:43:19;4.83;;;4.43;;
8663;SDS011;4369;47.842;13.096;2023-08-06T00:45:47;4.53;;;4.13;;
8663;SDS011;4369;47.842;13.096;2023-08-06T00:48:14;4.80;;;4.40;;
8663;SDS011;4369;47.842;13.096;2023-08-06T00:50:41;4.10;;;3.80;;
8663;SDS011;4369;47.842;13.096;2023-08-06T00:53:08;4.57;;;4.17;;
8663;SDS011;4369;47.842;13.096;2023-08-06T00:55:35;4.37;;;4.07;;
8663;SDS011;4369;47.842;13.096;2023-08-06T00:58:03;4.30;;;3.90;;
8663;SDS011;4369;47.842;13.096;2023-08-06T01:00:30;4.77;;;4.30;;
8663;SDS011;4369;47.842;13.096;2023-08-06T01:02:59;4.10;;;3.80;;
8663;SDS011;4369;47.842;13.096;2023-08-06T01:05:26;5.10;;;4.70;;
8663;SDS011;4369;47.842;13.096;2023-08-06T01:07:57;4.20;;;3.80;;
8663;SDS011;4369;47.842;13.096;2023-08-06T01:10:37;5.77;;;4.30;;
8663;SDS011;4369;47.842;13.096;2023-08-06T01:13:11;4.80;;;4.40;;
8663;SDS011;4369;47.842;13.096;2023-08-06T01:15:50;4.40;;;4.00;;
8663;SDS011;4369;47.842;13.096;2023-08-06T01:18:22;4.60;;;4.07;;
8663;SDS011;4369;47.842;13.096;2023-08-06T01:20:50;5.17;;;4.60;;
8663;SDS011;4369;47.842;13.096;2023-08-06T01:23:17;4.47;;;4.07;;
8663;SDS011;4369;47.842;13.096;2023-08-06T01:25:46;4.40;;;4.07;;
8663;SDS011;4369;47.842;13.096;2023-08-06T01:28:32;4.40;;;4.10;;
8663;SDS011;4369;47.842;13.096;2023-08-06T01:31:07;4.70;;;4.30;;
8663;SDS011;4369;47.842;13.096;2023-08-06T01:33:42;4.43;;;4.10;;
8663;SDS011;4369;47.842;13.096;2023-08-06T01:36:13;4.70;;;4.13;;
8663;SDS011;4369;47.842;13.096;2023-08-06T01:38:43;4.43;;;4.03;;
8663;SDS011;4369;47.842;13.096;2023-08-06T01:41:10;4.93;;;4.43;;
8663;SDS011;4369;47.842;13.096;2023-08-06T01:43:36;4.50;;;4.00;;
8663;SDS011;4369;47.842;13.096;2023-08-06T01:46:03;4.33;;;4.03;;
8663;SDS011;4369;47.842;13.096;2023-08-06T01:48:30;4.20;;;3.80;;
8663;SDS011;4369;47.842;13.096;2023-08-06T01:50:57;3.93;;;3.63;;
8663;SDS011;4369;47.842;13.096;2023-08-06T01:53:25;4.10;;;3.70;;
8663;SDS011;4369;47.842;13.096;2023-08-06T01:55:52;3.83;;;3.43;;
8663;SDS011;4369;47.842;13.096;2023-08-06T01:58:19;3.93;;;3.63;;
8663;SDS011;4369;47.842;13.096;2023-08-06T02:00:45;5.07;;;3.87;;
8663;SDS011;4369;47.842;13.096;2023-08-06T02:03:12;3.77;;;3.50;;
8663;SDS011;4369;47.842;13.096;2023-08-06T02:05:39;3.93;;;3.60;;
8663;SDS011;4369;47.842;13.096;2023-08-06T02:08:06;3.97;;;3.67;;
8663;SDS011;4369;47.842;13.096;2023-08-06T02:10:35;4.23;;;3.37;;
8663;SDS011;4369;47.842;13.096;2023-08-06T02:13:01;3.70;;;3.40;;
8663;SDS011;4369;47.842;13.096;2023-08-06T02:15:28;3.90;;;3.50;;
8663;SDS011;4369;47.842;13.096;2023-08-06T02:17:55;3.90;;;3.60;;
8663;SDS011;4369;47.842;13.096;2023-08-06T02:20:22;3.83;;;3.53;;
8663;SDS011;4369;47.842;13.096;2023-08-06T02:22:49;4.00;;;3.70;;
8663;SDS011;4369;47.842;13.096;2023-08-06T02:25:16;4.27;;;3.90;;
8663;SDS011;4369;47.842;13.096;2023-08-06T02:27:44;4.40;;;4.00;;
8663;SDS011;4369;47.842;13.096;2023-08-06T02:30:11;4.23;;;3.60;;
8663;SDS011;4369;47.842;13.096;2023-08-06T02:32:38;4.60;;;4.20;;
8663;SDS011;4369;47.842;13.096;2023-08-06T02:35:05;4.37;;;3.97;;
8663;SDS011;4369;47.842;13.096;2023-08-06T02:37:33;5.87;;;4.50;;
8663;SDS011;4369;47.842;13.096;2023-08-06T02:40:00;5.07;;;4.53;;
8663;SDS011;4369;47.842;13.096;2023-08-06T02:42:27;5.33;;;4.83;;
8663;SDS011;4369;47.842;13.096;2023-08-06T02:44:55;5.27;;;4.77;;
8663;SDS011;4369;47.842;13.096;2023-08-06T02:47:22;5.33;;;4.67;;
8663;SDS011;4369;47.842;13.096;2023-08-06T02:49:49;5.00;;;4.50;;
8663;SDS011;4369;47.842;13.096;2023-08-06T02:52:16;4.93;;;4.53;;
8663;SDS011;4369;47.842;13.096;2023-08-06T02:54:43;5.63;;;5.10;;
8663;SDS011;4369;47.842;13.096;2023-08-06T02:57:10;5.13;;;4.73;;
8663;SDS011;4369;47.842;13.096;2023-08-06T02:59:37;4.90;;;4.50;;
8663;SDS011;4369;47.842;13.096;2023-08-06T03:02:05;5.03;;;4.53;;
8663;SDS011;4369;47.842;13.096;2023-08-06T03:04:32;5.80;;;5.20;;
8663;SDS011;4369;47.842;13.096;2023-08-06T03:06:59;6.37;;;5.23;;
8663;SDS011;4369;47.842;13.096;2023-08-06T03:09:25;8.03;;;5.40;;
8663;SDS011;4369;47.842;13.096;2023-08-06T03:11:52;5.60;;;5.00;;
8663;SDS011;4369;47.842;13.096;2023-08-06T03:14:19;5.77;;;5.27;;
8663;SDS011;4369;47.842;13.096;2023-08-06T03:16:46;6.20;;;5.67;;
8663;SDS011;4369;47.842;13.096;2023-08-06T03:19:14;6.07;;;5.50;;
8663;SDS011;4369;47.842;13.096;2023-08-06T03:21:41;6.33;;;5.23;;
8663;SDS011;4369;47.842;13.096;2023-08-06T03:24:08;5.77;;;5.23;;
8663;SDS011;4369;47.842;13.096;2023-08-06T03:26:35;6.80;;;5.23;;
8663;SDS011;4369;47.842;13.096;2023-08-06T03:29:01;6.50;;;5.90;;
8663;SDS011;4369;47.842;13.096;2023-08-06T03:31:28;6.50;;;4.97;;
8663;SDS011;4369;47.842;13.096;2023-08-06T03:33:55;5.30;;;4.90;;
8663;SDS011;4369;47.842;13.096;2023-08-06T03:36:23;4.90;;;4.47;;
8663;SDS011;4369;47.842;13.096;2023-08-06T03:38:50;5.17;;;4.77;;
8663;SDS011;4369;47.842;13.096;2023-08-06T03:41:17;5.57;;;4.97;;
8663;SDS011;4369;47.842;13.096;2023-08-06T03:43:44;5.20;;;4.70;;
8663;SDS011;4369;47.842;13.096;2023-08-06T03:46:11;6.23;;;4.83;;
8663;SDS011;4369;47.842;13.096;2023-08-06T03:48:37;5.10;;;4.70;;
8663;SDS011;4369;47.842;13.096;2023-08-06T03:51:04;5.07;;;4.57;;
8663;SDS011;4369;47.842;13.096;2023-08-06T03:53:32;5.60;;;4.97;;
8663;SDS011;4369;47.842;13.096;2023-08-06T03:55:59;5.47;;;4.63;;
8663;SDS011;4369;47.842;13.096;2023-08-06T03:58:26;5.00;;;4.50;;
8663;SDS011;4369;47.842;13.096;2023-08-06T04:00:57;5.30;;;4.90;;
8663;SDS011;4369;47.842;13.096;2023-08-06T04:03:25;5.00;;;4.57;;
8663;SDS011;4369;47.842;13.096;2023-08-06T04:05:52;4.67;;;4.27;;
8663;SDS011;4369;47.842;13.096;2023-08-06T04:08:19;7.07;;;4.20;;
8663;SDS011;4369;47.842;13.096;2023-08-06T04:10:50;4.37;;;4.00;;
8663;SDS011;4369;47.842;13.096;2023-08-06T04:13:18;4.80;;;4.30;;
8663;SDS011;4369;47.842;13.096;2023-08-06T04:15:45;4.10;;;3.80;;
8663;SDS011;4369;47.842;13.096;2023-08-06T04:18:13;4.93;;;4.47;;
8663;SDS011;4369;47.842;13.096;2023-08-06T04:20:42;5.17;;;3.90;;
8663;SDS011;4369;47.842;13.096;2023-08-06T04:23:10;4.17;;;3.87;;
8663;SDS011;4369;47.842;13.096;2023-08-06T04:25:37;5.43;;;4.10;;
8663;SDS011;4369;47.842;13.096;2023-08-06T04:28:05;4.07;;;3.60;;
8663;SDS011;4369;47.842;13.096;2023-08-06T04:30:32;4.03;;;3.60;;
8663;SDS011;4369;47.842;13.096;2023-08-06T04:32:59;3.73;;;3.43;;
8663;SDS011;4369;47.842;13.096;2023-08-06T04:35:26;3.80;;;3.50;;
8663;SDS011;4369;47.842;13.096;2023-08-06T04:37:53;3.90;;;3.50;;
8663;SDS011;4369;47.842;13.096;2023-08-06T04:40:20;3.77;;;3.47;;
8663;SDS011;4369;47.842;13.096;2023-08-06T04:42:47;4.23;;;3.70;;
8663;SDS011;4369;47.842;13.096;2023-08-06T04:45:15;3.37;;;3.07;;
8663;SDS011;4369;47.842;13.096;2023-08-06T04:47:42;3.53;;;3.30;;
8663;SDS011;4369;47.842;13.096;2023-08-06T04:50:09;4.23;;;3.73;;
8663;SDS011;4369;47.842;13.096;2023-08-06T04:52:41;4.43;;;3.40;;
8663;SDS011;4369;47.842;13.096;2023-08-06T04:55:08;3.85;;;3.45;;
8663;SDS011;4369;47.842;13.096;2023-08-06T04:57:34;3.93;;;3.63;;
8663;SDS011;4369;47.842;13.096;2023-08-06T05:00:01;4.57;;;3.77;;
8663;SDS011;4369;47.842;13.096;2023-08-06T05:02:31;5.73;;;4.10;;
8663;SDS011;4369;47.842;13.096;2023-08-06T05:04:59;4.03;;;3.73;;
8663;SDS011;4369;47.842;13.096;2023-08-06T05:07:26;4.43;;;4.10;;
8663;SDS011;4369;47.842;13.096;2023-08-06T05:09:53;4.57;;;4.27;;
8663;SDS011;4369;47.842;13.096;2023-08-06T05:12:20;4.70;;;4.03;;
8663;SDS011;4369;47.842;13.096;2023-08-06T05:14:47;4.53;;;4.13;;
8663;SDS011;4369;47.842;13.096;2023-08-06T05:17:13;6.00;;;4.47;;
8663;SDS011;4369;47.842;13.096;2023-08-06T05:19:42;5.30;;;4.80;;
8663;SDS011;4369;47.842;13.096;2023-08-06T05:22:09;5.87;;;5.27;;
8663;SDS011;4369;47.842;13.096;2023-08-06T05:24:35;6.23;;;5.63;;
8663;SDS011;4369;47.842;13.096;2023-08-06T05:27:02;6.73;;;6.17;;
8663;SDS011;4369;47.842;13.096;2023-08-06T05:29:30;5.23;;;4.83;;
8663;SDS011;4369;47.842;13.096;2023-08-06T05:31:57;5.80;;;5.30;;
8663;SDS011;4369;47.842;13.096;2023-08-06T05:34:24;6.03;;;5.40;;
8663;SDS011;4369;47.842;13.096;2023-08-06T05:36:52;6.87;;;6.17;;
8663;SDS011;4369;47.842;13.096;2023-08-06T05:39:19;7.67;;;7.03;;
8663;SDS011;4369;47.842;13.096;2023-08-06T05:41:45;7.60;;;6.90;;
8663;SDS011;4369;47.842;13.096;2023-08-06T05:44:12;8.30;;;7.03;;
8663;SDS011;4369;47.842;13.096;2023-08-06T05:46:39;7.10;;;6.50;;
8663;SDS011;4369;47.842;13.096;2023-08-06T05:49:06;7.43;;;6.60;;
8663;SDS011;4369;47.842;13.096;2023-08-06T05:51:34;6.70;;;6.10;;
8663;SDS011;4369;47.842;13.096;2023-08-06T05:54:02;7.17;;;6.53;;
8663;SDS011;4369;47.842;13.096;2023-08-06T05:56:29;6.90;;;6.23;;
8663;SDS011;4369;47.842;13.096;2023-08-06T05:58:56;6.10;;;5.50;;
8663;SDS011;4369;47.842;13.096;2023-08-06T06:01:23;6.50;;;5.43;;
8663;SDS011;4369;47.842;13.096;2023-08-06T06:03:50;6.50;;;5.90;;
8663;SDS011;4369;47.842;13.096;2023-08-06T06:06:17;6.50;;;5.80;;
8663;SDS011;4369;47.842;13.096;2023-08-06T06:08:45;5.60;;;5.10;;
8663;SDS011;4369;47.842;13.096;2023-08-06T06:11:13;4.47;;;4.10;;
8663;SDS011;4369;47.842;13.096;2023-08-06T06:13:40;5.63;;;5.03;;
8663;SDS011;4369;47.842;13.096;2023-08-06T06:16:07;6.30;;;5.43;;
8663;SDS011;4369;47.842;13.096;2023-08-06T06:18:34;4.90;;;4.50;;
8663;SDS011;4369;47.842;13.096;2023-08-06T06:21:00;5.63;;;5.03;;
8663;SDS011;4369;47.842;13.096;2023-08-06T06:23:36;4.93;;;4.57;;
8663;SDS011;4369;47.842;13.096;2023-08-06T06:28:48;4.97;;;4.50;;
8663;SDS011;4369;47.842;13.096;2023-08-06T06:31:15;5.17;;;4.77;;
8663;SDS011;4369;47.842;13.096;2023-08-06T06:33:42;5.07;;;4.60;;
8663;SDS011;4369;47.842;13.096;2023-08-06T06:36:09;4.57;;;4.00;;
8663;SDS011;4369;47.842;13.096;2023-08-06T06:38:36;5.03;;;4.53;;
8663;SDS011;4369;47.842;13.096;2023-08-06T06:41:02;5.00;;;4.60;;
8663;SDS011;4369;47.842;13.096;2023-08-06T06:43:29;5.33;;;4.40;;
8663;SDS011;4369;47.842;13.096;2023-08-06T06:45:57;5.33;;;4.83;;
8663;SDS011;4369;47.842;13.096;2023-08-06T06:48:26;5.20;;;4.70;;
8663;SDS011;4369;47.842;13.096;2023-08-06T06:50:54;3.93;;;3.60;;
8663;SDS011;4369;47.842;13.096;2023-08-06T06:53:21;4.30;;;3.63;;
8663;SDS011;4369;47.842;13.096;2023-08-06T06:55:52;5.60;;;3.83;;
8663;SDS011;4369;47.842;13.096;2023-08-06T06:58:19;5.03;;;4.03;;
8663;SDS011;4369;47.842;13.096;2023-08-06T07:00:46;3.70;;;3.10;;
8663;SDS011;4369;47.842;13.096;2023-08-06T07:03:15;3.50;;;3.20;;
8663;SDS011;4369;47.842;13.096;2023-08-06T07:05:41;4.40;;;4.00;;
8663;SDS011;4369;47.842;13.096;2023-08-06T07:08:09;4.17;;;2.80;;
8663;SDS011;4369;47.842;13.096;2023-08-06T07:10:36;2.53;;;2.33;;
8663;SDS011;4369;47.842;13.096;2023-08-06T07:13:03;2.80;;;2.60;;
8663;SDS011;4369;47.842;13.096;2023-08-06T07:15:30;4.10;;;2.73;;
8663;SDS011;4369;47.842;13.096;2023-08-06T07:17:57;3.40;;;2.80;;
8663;SDS011;4369;47.842;13.096;2023-08-06T07:20:25;2.67;;;2.47;;
8663;SDS011;4369;47.842;13.096;2023-08-06T07:22:54;2.63;;;2.43;;
8663;SDS011;4369;47.842;13.096;2023-08-06T07:25:21;3.30;;;2.50;;
8663;SDS011;4369;47.842;13.096;2023-08-06T07:27:48;2.73;;;2.53;;
8663;SDS011;4369;47.842;13.096;2023-08-06T07:30:14;2.27;;;2.10;;
8663;SDS011;4369;47.842;13.096;2023-08-06T07:32:42;3.20;;;2.90;;
8663;SDS011;4369;47.842;13.096;2023-08-06T07:35:08;2.33;;;2.13;;
8663;SDS011;4369;47.842;13.096;2023-08-06T07:37:39;2.30;;;2.17;;
8663;SDS011;4369;47.842;13.096;2023-08-06T07:40:06;2.27;;;2.00;;
8663;SDS011;4369;47.842;13.096;2023-08-06T07:42:33;2.60;;;2.40;;
8663;SDS011;4369;47.842;13.096;2023-08-06T07:45:01;2.87;;;2.50;;
8663;SDS011;4369;47.842;13.096;2023-08-06T07:47:28;2.53;;;2.10;;
8663;SDS011;4369;47.842;13.096;2023-08-06T07:49:55;4.67;;;2.87;;
8663;SDS011;4369;47.842;13.096;2023-08-06T07:52:22;2.63;;;2.23;;
8663;SDS011;4369;47.842;13.096;2023-08-06T07:54:51;2.93;;;2.37;;
8663;SDS011;4369;47.842;13.096;2023-08-06T07:57:17;2.33;;;2.13;;
8663;SDS011;4369;47.842;13.096;2023-08-06T07:59:44;3.87;;;2.37;;
8663;SDS011;4369;47.842;13.096;2023-08-06T08:02:11;3.27;;;2.43;;
8663;SDS011;4369;47.842;13.096;2023-08-06T08:04:38;2.60;;;2.40;;
8663;SDS011;4369;47.842;13.096;2023-08-06T08:07:05;2.40;;;2.20;;
8663;SDS011;4369;47.842;13.096;2023-08-06T08:09:32;3.90;;;2.53;;
8663;SDS011;4369;47.842;13.096;2023-08-06T08:12:02;3.17;;;2.03;;
8663;SDS011;4369;47.842;13.096;2023-08-06T08:14:29;1.80;;;1.70;;
8663;SDS011;4369;47.842;13.096;2023-08-06T08:17:00;3.83;;;2.60;;
8663;SDS011;4369;47.842;13.096;2023-08-06T08:19:27;2.60;;;2.40;;
8663;SDS011;4369;47.842;13.096;2023-08-06T08:21:54;2.43;;;2.10;;
8663;SDS011;4369;47.842;13.096;2023-08-06T08:24:21;2.20;;;1.90;;
8663;SDS011;4369;47.842;13.096;2023-08-06T08:26:49;2.40;;;2.20;;
8663;SDS011;4369;47.842;13.096;2023-08-06T08:29:19;2.43;;;1.87;;
8663;SDS011;4369;47.842;13.096;2023-08-06T08:31:46;3.80;;;2.10;;
8663;SDS011;4369;47.842;13.096;2023-08-06T08:34:15;1.93;;;1.73;;
8663;SDS011;4369;47.842;13.096;2023-08-06T08:36:41;1.80;;;1.60;;
8663;SDS011;4369;47.842;13.096;2023-08-06T08:39:09;3.30;;;1.90;;
8663;SDS011;4369;47.842;13.096;2023-08-06T08:41:36;3.70;;;1.87;;
8663;SDS011;4369;47.842;13.096;2023-08-06T08:44:04;1.80;;;1.70;;
8663;SDS011;4369;47.842;13.096;2023-08-06T08:46:35;3.70;;;1.70;;
8663;SDS011;4369;47.842;13.096;2023-08-06T08:49:03;1.80;;;1.70;;
8663;SDS011;4369;47.842;13.096;2023-08-06T08:51:31;2.93;;;2.00;;
8663;SDS011;4369;47.842;13.096;2023-08-06T08:53:59;4.97;;;1.77;;
8663;SDS011;4369;47.842;13.096;2023-08-06T08:56:29;2.23;;;1.63;;
8663;SDS011;4369;47.842;13.096;2023-08-06T08:58:56;1.83;;;1.70;;
8663;SDS011;4369;47.842;13.096;2023-08-06T09:01:23;2.20;;;1.90;;
8663;SDS011;4369;47.842;13.096;2023-08-06T09:03:52;3.37;;;1.60;;
8663;SDS011;4369;47.842;13.096;2023-08-06T09:06:21;2.43;;;1.73;;
8663;SDS011;4369;47.842;13.096;2023-08-06T09:08:50;2.13;;;1.70;;
8663;SDS011;4369;47.842;13.096;2023-08-06T09:11:22;5.03;;;1.40;;
8663;SDS011;4369;47.842;13.096;2023-08-06T09:13:50;1.80;;;1.60;;
8663;SDS011;4369;47.842;13.096;2023-08-06T09:16:17;1.60;;;1.33;;
8663;SDS011;4369;47.842;13.096;2023-08-06T09:18:43;1.63;;;1.30;;
8663;SDS011;4369;47.842;13.096;2023-08-06T09:21:14;1.50;;;1.40;;
8663;SDS011;4369;47.842;13.096;2023-08-06T09:23:42;1.70;;;1.60;;
8663;SDS011;4369;47.842;13.096;2023-08-06T09:26:11;2.20;;;1.50;;
8663;SDS011;4369;47.842;13.096;2023-08-06T09:28:38;1.63;;;1.50;;
8663;SDS011;4369;47.842;13.096;2023-08-06T09:31:07;1.83;;;1.60;;
8663;SDS011;4369;47.842;13.096;2023-08-06T09:33:35;2.00;;;1.37;;
8663;SDS011;4369;47.842;13.096;2023-08-06T09:36:09;1.63;;;1.53;;
8663;SDS011;4369;47.842;13.096;2023-08-06T09:38:38;2.33;;;1.40;;
8663;SDS011;4369;47.842;13.096;2023-08-06T09:41:07;2.87;;;1.30;;
8663;SDS011;4369;47.842;13.096;2023-08-06T09:46:16;1.27;;;1.23;;
8663;SDS011;4369;47.842;13.096;2023-08-06T09:48:46;1.90;;;1.40;;
8663;SDS011;4369;47.842;13.096;2023-08-06T09:51:14;1.50;;;1.40;;
8663;SDS011;4369;47.842;13.096;2023-08-06T09:53:42;1.07;;;0.90;;
8663;SDS011;4369;47.842;13.096;2023-08-06T09:56:10;1.33;;;1.23;;
8663;SDS011;4369;47.842;13.096;2023-08-06T09:58:39;4.10;;;1.33;;
8663;SDS011;4369;47.842;13.096;2023-08-06T10:01:06;2.57;;;1.27;;
8663;SDS011;4369;47.842;13.096;2023-08-06T10:03:34;1.47;;;1.37;;
8663;SDS011;4369;47.842;13.096;2023-08-06T10:06:03;1.30;;;1.20;;
8663;SDS011;4369;47.842;13.096;2023-08-06T10:08:33;2.17;;;1.30;;
8663;SDS011;4369;47.842;13.096;2023-08-06T10:11:01;1.30;;;1.17;;
8663;SDS011;4369;47.842;13.096;2023-08-06T10:13:30;0.97;;;0.97;;
8663;SDS011;4369;47.842;13.096;2023-08-06T10:15:59;1.27;;;1.17;;
8663;SDS011;4369;47.842;13.096;2023-08-06T10:18:26;1.83;;;1.13;;
8663;SDS011;4369;47.842;13.096;2023-08-06T10:20:54;0.90;;;0.90;;
8663;SDS011;4369;47.842;13.096;2023-08-06T10:23:21;1.47;;;1.20;;
8663;SDS011;4369;47.842;13.096;2023-08-06T10:26:01;1.77;;;0.90;;
8663;SDS011;4369;47.842;13.096;2023-08-06T10:28:33;0.67;;;0.67;;
8663;SDS011;4369;47.842;13.096;2023-08-06T10:31:01;2.43;;;0.90;;
8663;SDS011;4369;47.842;13.096;2023-08-06T10:33:40;0.60;;;0.50;;
8663;SDS011;4369;47.842;13.096;2023-08-06T10:36:08;1.50;;;0.63;;
8663;SDS011;4369;47.842;13.096;2023-08-06T10:38:36;1.23;;;0.60;;
8663;SDS011;4369;47.842;13.096;2023-08-06T10:41:15;1.37;;;0.43;;
8663;SDS011;4369;47.842;13.096;2023-08-06T10:43:49;0.90;;;0.50;;
8663;SDS011;4369;47.842;13.096;2023-08-06T10:46:23;0.50;;;0.40;;
8663;SDS011;4369;47.842;13.096;2023-08-06T10:48:53;0.57;;;0.40;;
8663;SDS011;4369;47.842;13.096;2023-08-06T10:51:20;0.70;;;0.70;;
8663;SDS011;4369;47.842;13.096;2023-08-06T10:53:48;2.77;;;0.50;;
8663;SDS011;4369;47.842;13.096;2023-08-06T10:56:18;0.40;;;0.27;;
8663;SDS011;4369;47.842;13.096;2023-08-06T10:58:48;2.00;;;0.60;;
8663;SDS011;4369;47.842;13.096;2023-08-06T11:01:16;4.87;;;0.70;;
8663;SDS011;4369;47.842;13.096;2023-08-06T11:03:44;1.60;;;0.43;;
8663;SDS011;4369;47.842;13.096;2023-08-06T11:06:16;0.50;;;0.37;;
8663;SDS011;4369;47.842;13.096;2023-08-06T11:08:46;0.60;;;0.40;;
8663;SDS011;4369;47.842;13.096;2023-08-06T11:11:14;0.30;;;0.30;;
8663;SDS011;4369;47.842;13.096;2023-08-06T11:13:44;0.60;;;0.30;;
8663;SDS011;4369;47.842;13.096;2023-08-06T11:16:13;0.77;;;0.40;;
8663;SDS011;4369;47.842;13.096;2023-08-06T11:18:40;1.13;;;0.40;;
8663;SDS011;4369;47.842;13.096;2023-08-06T11:21:08;0.83;;;0.40;;
8663;SDS011;4369;47.842;13.096;2023-08-06T11:23:35;1.80;;;0.60;;
8663;SDS011;4369;47.842;13.096;2023-08-06T11:26:02;0.83;;;0.43;;
8663;SDS011;4369;47.842;13.096;2023-08-06T11:28:30;1.30;;;0.40;;
8663;SDS011;4369;47.842;13.096;2023-08-06T11:30:57;0.80;;;0.57;;
8663;SDS011;4369;47.842;13.096;2023-08-06T11:33:27;0.60;;;0.40;;
8663;SDS011;4369;47.842;13.096;2023-08-06T11:35:55;0.30;;;0.30;;
8663;SDS011;4369;47.842;13.096;2023-08-06T11:38:24;0.60;;;0.60;;
8663;SDS011;4369;47.842;13.096;2023-08-06T11:40:51;1.53;;;0.73;;
8663;SDS011;4369;47.842;13.096;2023-08-06T11:43:19;0.50;;;0.30;;
8663;SDS011;4369;47.842;13.096;2023-08-06T11:45:48;0.87;;;0.40;;
8663;SDS011;4369;47.842;13.096;2023-08-06T11:48:17;1.07;;;0.60;;
8663;SDS011;4369;47.842;13.096;2023-08-06T11:50:44;0.50;;;0.40;;
8663;SDS011;4369;47.842;13.096;2023-08-06T11:53:12;0.30;;;0.30;;
8663;SDS011;4369;47.842;13.096;2023-08-06T11:55:40;1.27;;;0.30;;
8663;SDS011;4369;47.842;13.096;2023-08-06T11:58:08;0.40;;;0.40;;
8663;SDS011;4369;47.842;13.096;2023-08-06T12:00:36;1.53;;;0.40;;
8663;SDS011;4369;47.842;13.096;2023-08-06T12:03:04;1.27;;;0.43;;
8663;SDS011;4369;47.842;13.096;2023-08-06T12:05:31;1.07;;;0.20;;
8663;SDS011;4369;47.842;13.096;2023-08-06T12:07:59;1.43;;;0.30;;
8663;SDS011;4369;47.842;13.096;2023-08-06T12:10:28;0.53;;;0.33;;
8663;SDS011;4369;47.842;13.096;2023-08-06T12:12:56;0.87;;;0.30;;
8663;SDS011;4369;47.842;13.096;2023-08-06T12:15:23;3.57;;;0.57;;
8663;SDS011;4369;47.842;13.096;2023-08-06T12:17:50;0.23;;;0.20;;
8663;SDS011;4369;47.842;13.096;2023-08-06T12:20:18;0.53;;;0.20;;
8663;SDS011;4369;47.842;13.096;2023-08-06T12:22:45;0.73;;;0.23;;
8663;SDS011;4369;47.842;13.096;2023-08-06T12:25:12;0.37;;;0.33;;
8663;SDS011;4369;47.842;13.096;2023-08-06T12:27:39;1.40;;;0.17;;
8663;SDS011;4369;47.842;13.096;2023-08-06T12:30:07;1.20;;;0.30;;
8663;SDS011;4369;47.842;13.096;2023-08-06T12:32:35;0.90;;;0.20;;
8663;SDS011;4369;47.842;13.096;2023-08-06T12:35:03;1.30;;;0.40;;
8663;SDS011;4369;47.842;13.096;2023-08-06T12:37:33;0.37;;;0.20;;
8663;SDS011;4369;47.842;13.096;2023-08-06T12:40:01;0.67;;;0.37;;
8663;SDS011;4369;47.842;13.096;2023-08-06T12:42:28;0.60;;;0.20;;
8663;SDS011;4369;47.842;13.096;2023-08-06T12:44:55;0.27;;;0.27;;
8663;SDS011;4369;47.842;13.096;2023-08-06T12:47:21;0.30;;;0.20;;
8663;SDS011;4369;47.842;13.096;2023-08-06T12:49:49;1.60;;;0.40;;
8663;SDS011;4369;47.842;13.096;2023-08-06T12:52:17;0.30;;;0.20;;
8663;SDS011;4369;47.842;13.096;2023-08-06T12:54:46;0.50;;;0.30;;
8663;SDS011;4369;47.842;13.096;2023-08-06T12:57:13;0.77;;;0.40;;
8663;SDS011;4369;47.842;13.096;2023-08-06T12:59:40;0.67;;;0.10;;
8663;SDS011;4369;47.842;13.096;2023-08-06T13:02:07;1.67;;;0.30;;
8663;SDS011;4369;47.842;13.096;2023-08-06T13:04:33;0.20;;;0.20;;
8663;SDS011;4369;47.842;13.096;2023-08-06T13:07:00;0.13;;;0.13;;
8663;SDS011;4369;47.842;13.096;2023-08-06T13:09:27;1.30;;;0.20;;
8663;SDS011;4369;47.842;13.096;2023-08-06T13:11:56;0.10;;;0.10;;
8663;SDS011;4369;47.842;13.096;2023-08-06T13:14:23;0.10;;;0.10;;
8663;SDS011;4369;47.842;13.096;2023-08-06T13:16:49;0.20;;;0.17;;
8663;SDS011;4369;47.842;13.096;2023-08-06T13:19:16;0.40;;;0.00;;
8663;SDS011;4369;47.842;13.096;2023-08-06T13:21:59;1.00;;;0.20;;
8663;SDS011;4369;47.842;13.096;2023-08-06T13:24:29;0.60;;;0.20;;
8663;SDS011;4369;47.842;13.096;2023-08-06T13:26:57;0.10;;;0.10;;
8663;SDS011;4369;47.842;13.096;2023-08-06T13:29:24;0.30;;;0.20;;
8663;SDS011;4369;47.842;13.096;2023-08-06T13:31:52;1.40;;;0.33;;
8663;SDS011;4369;47.842;13.096;2023-08-06T13:34:19;1.13;;;0.30;;
8663;SDS011;4369;47.842;13.096;2023-08-06T13:36:46;0.43;;;0.10;;
8663;SDS011;4369;47.842;13.096;2023-08-06T13:39:12;0.77;;;0.20;;
8663;SDS011;4369;47.842;13.096;2023-08-06T13:41:41;1.23;;;0.13;;
8663;SDS011;4369;47.842;13.096;2023-08-06T13:44:09;0.10;;;0.10;;
8663;SDS011;4369;47.842;13.096;2023-08-06T13:46:39;0.87;;;0.17;;
8663;SDS011;4369;47.842;13.096;2023-08-06T13:49:06;0.10;;;0.10;;
8663;SDS011;4369;47.842;13.096;2023-08-06T13:51:32;1.30;;;0.13;;
8663;SDS011;4369;47.842;13.096;2023-08-06T13:56:26;0.20;;;0.10;;
8663;SDS011;4369;47.842;13.096;2023-08-06T13:58:54;0.30;;;0.20;;
8663;SDS011;4369;47.842;13.096;2023-08-06T14:01:23;0.67;;;0.30;;
8663;SDS011;4369;47.842;13.096;2023-08-06T14:06:27;0.33;;;0.27;;
8663;SDS011;4369;47.842;13.096;2023-08-06T14:08:54;0.20;;;0.17;;
8663;SDS011;4369;47.842;13.096;2023-08-06T14:11:20;1.70;;;0.17;;
8663;SDS011;4369;47.842;13.096;2023-08-06T14:13:47;0.20;;;0.20;;
8663;SDS011;4369;47.842;13.096;2023-08-06T14:16:14;1.17;;;0.30;;
8663;SDS011;4369;47.842;13.096;2023-08-06T14:18:43;0.20;;;0.20;;
8663;SDS011;4369;47.842;13.096;2023-08-06T14:21:09;0.67;;;0.30;;
8663;SDS011;4369;47.842;13.096;2023-08-06T14:23:36;1.37;;;0.70;;
8663;SDS011;4369;47.842;13.096;2023-08-06T14:26:03;2.00;;;0.33;;
8663;SDS011;4369;47.842;13.096;2023-08-06T14:28:30;1.50;;;0.10;;
8663;SDS011;4369;47.842;13.096;2023-08-06T14:30:57;1.03;;;0.30;;
8663;SDS011;4369;47.842;13.096;2023-08-06T14:33:24;1.13;;;0.30;;
8663;SDS011;4369;47.842;13.096;2023-08-06T14:35:52;1.57;;;0.23;;
8663;SDS011;4369;47.842;13.096;2023-08-06T14:38:19;2.30;;;0.20;;
8663;SDS011;4369;47.842;13.096;2023-08-06T14:40:46;0.97;;;0.10;;
8663;SDS011;4369;47.842;13.096;2023-08-06T14:43:13;0.20;;;0.20;;
8663;SDS011;4369;47.842;13.096;2023-08-06T14:45:40;0.27;;;0.20;;
8663;SDS011;4369;47.842;13.096;2023-08-06T14:48:07;0.20;;;0.20;;
8663;SDS011;4369;47.842;13.096;2023-08-06T14:50:34;1.00;;;0.20;;
8663;SDS011;4369;47.842;13.096;2023-08-06T14:55:37;0.60;;;0.20;;
8663;SDS011;4369;47.842;13.096;2023-08-06T14:58:04;0.93;;;0.30;;
8663;SDS011;4369;47.842;13.096;2023-08-06T15:00:31;0.97;;;0.20;;
8663;SDS011;4369;47.842;13.096;2023-08-06T15:02:58;0.10;;;0.10;;
8663;SDS011;4369;47.842;13.096;2023-08-06T15:05:25;0.30;;;0.10;;
8663;SDS011;4369;47.842;13.096;2023-08-06T15:07:52;0.10;;;0.10;;
8663;SDS011;4369;47.842;13.096;2023-08-06T15:10:19;0.10;;;0.10;;
8663;SDS011;4369;47.842;13.096;2023-08-06T15:12:48;0.20;;;0.10;;
8663;SDS011;4369;47.842;13.096;2023-08-06T15:15:15;0.27;;;0.17;;
8663;SDS011;4369;47.842;13.096;2023-08-06T15:17:42;2.20;;;0.20;;